sensor_id;sensor_type;location;lat;lon;timestamp;temperature;humidity
24446;DHT22;13347;50.984;5.822;2023-12-20T00:01:37;8.50;99.90
24446;DHT22;13347;50.984;5.822;2023-12-20T00:04:04;8.40;99.90
24446;DHT22;13347;50.984;5.822;2023-12-20T00:06:31;8.30;99.90
24446;DHT22;13347;50.984;5.822;2023-12-20T00:08:57;8.30;99.90
24446;DHT22;13347;50.984;5.822;2023-12-20T00:11:24;8.40;99.90
24446;DHT22;13347;50.984;5.822;2023-12-20T00:13:51;8.20;99.90
24446;DHT22;13347;50.984;5.822;2023-12-20T00:16:18;8.00;99.90
24446;DHT22;13347;50.984;5.822;2023-12-20T00:18:47;7.90;99.90
24446;DHT22;13347;50.984;5.822;2023-12-20T00:21:14;7.80;99.90
24446;DHT22;13347;50.984;5.822;2023-12-20T00:23:41;7.70;99.90
24446;DHT22;13347;50.984;5.822;2023-12-20T00:26:08;7.50;99.90
24446;DHT22;13347;50.984;5.822;2023-12-20T00:28:35;7.50;99.90
24446;DHT22;13347;50.984;5.822;2023-12-20T00:31:02;7.40;99.90
24446;DHT22;13347;50.984;5.822;2023-12-20T00:33:28;7.40;99.90
24446;DHT22;13347;50.984;5.822;2023-12-20T00:35:57;7.30;99.90
24446;DHT22;13347;50.984;5.822;2023-12-20T00:38:24;7.20;99.90
24446;DHT22;13347;50.984;5.822;2023-12-20T00:40:51;7.10;99.90
24446;DHT22;13347;50.984;5.822;2023-12-20T00:43:18;7.10;99.90
24446;DHT22;13347;50.984;5.822;2023-12-20T00:45:45;6.90;99.90
24446;DHT22;13347;50.984;5.822;2023-12-20T00:48:12;6.90;99.90
24446;DHT22;13347;50.984;5.822;2023-12-20T00:50:39;6.90;99.90
24446;DHT22;13347;50.984;5.822;2023-12-20T00:53:07;6.90;99.90
24446;DHT22;13347;50.984;5.822;2023-12-20T00:55:34;6.80;99.90
24446;DHT22;13347;50.984;5.822;2023-12-20T00:58:01;6.80;99.90
24446;DHT22;13347;50.984;5.822;2023-12-20T01:00:28;6.80;99.90
24446;DHT22;13347;50.984;5.822;2023-12-20T01:02:55;6.70;99.90
24446;DHT22;13347;50.984;5.822;2023-12-20T01:05:22;6.80;99.90
24446;DHT22;13347;50.984;5.822;2023-12-20T01:07:49;6.80;99.90
24446;DHT22;13347;50.984;5.822;2023-12-20T01:10:17;6.80;99.90
24446;DHT22;13347;50.984;5.822;2023-12-20T01:12:44;6.80;99.90
24446;DHT22;13347;50.984;5.822;2023-12-20T01:15:11;6.80;99.90
24446;DHT22;13347;50.984;5.822;2023-12-20T01:17:38;6.80;99.90
24446;DHT22;13347;50.984;5.822;2023-12-20T01:20:05;6.90;99.90
24446;DHT22;13347;50.984;5.822;2023-12-20T01:22:32;6.80;99.90
24446;DHT22;13347;50.984;5.822;2023-12-20T01:25:01;6.70;99.90
24446;DHT22;13347;50.984;5.822;2023-12-20T01:27:30;6.70;99.90
24446;DHT22;13347;50.984;5.822;2023-12-20T01:29:57;6.70;99.90
24446;DHT22;13347;50.984;5.822;2023-12-20T01:32:24;6.70;99.90
24446;DHT22;13347;50.984;5.822;2023-12-20T01:34:51;6.60;99.90
24446;DHT22;13347;50.984;5.822;2023-12-20T01:37:18;6.70;99.90
24446;DHT22;13347;50.984;5.822;2023-12-20T01:39:45;6.60;99.90
24446;DHT22;13347;50.984;5.822;2023-12-20T01:42:12;6.50;99.90
24446;DHT22;13347;50.984;5.822;2023-12-20T01:44:40;6.50;99.90
24446;DHT22;13347;50.984;5.822;2023-12-20T01:47:07;6.50;99.90
24446;DHT22;13347;50.984;5.822;2023-12-20T01:49:34;6.60;99.90
24446;DHT22;13347;50.984;5.822;2023-12-20T01:52:02;6.50;99.90
24446;DHT22;13347;50.984;5.822;2023-12-20T01:54:29;6.50;99.90
24446;DHT22;13347;50.984;5.822;2023-12-20T01:56:57;6.40;99.90
24446;DHT22;13347;50.984;5.822;2023-12-20T01:59:24;6.30;99.90
24446;DHT22;13347;50.984;5.822;2023-12-20T02:01:52;6.40;99.90
24446;DHT22;13347;50.984;5.822;2023-12-20T02:04:19;6.50;99.90
24446;DHT22;13347;50.984;5.822;2023-12-20T02:06:46;6.50;99.90
24446;DHT22;13347;50.984;5.822;2023-12-20T02:09:14;6.40;99.90
24446;DHT22;13347;50.984;5.822;2023-12-20T02:11:41;6.30;99.90
24446;DHT22;13347;50.984;5.822;2023-12-20T02:14:08;6.30;99.90
24446;DHT22;13347;50.984;5.822;2023-12-20T02:16:35;6.20;99.90
24446;DHT22;13347;50.984;5.822;2023-12-20T02:19:04;6.30;99.90
24446;DHT22;13347;50.984;5.822;2023-12-20T02:21:35;6.30;99.90
24446;DHT22;13347;50.984;5.822;2023-12-20T02:24:01;6.40;99.90
24446;DHT22;13347;50.984;5.822;2023-12-20T02:26:28;6.30;99.90
24446;DHT22;13347;50.984;5.822;2023-12-20T02:28:55;6.30;99.90
24446;DHT22;13347;50.984;5.822;2023-12-20T02:31:22;6.30;99.90
24446;DHT22;13347;50.984;5.822;2023-12-20T02:33:49;6.30;99.90
24446;DHT22;13347;50.984;5.822;2023-12-20T02:36:17;6.40;99.90
24446;DHT22;13347;50.984;5.822;2023-12-20T02:38:45;6.40;99.90
24446;DHT22;13347;50.984;5.822;2023-12-20T02:41:12;6.40;99.90
24446;DHT22;13347;50.984;5.822;2023-12-20T02:43:41;6.40;99.90
24446;DHT22;13347;50.984;5.822;2023-12-20T02:46:08;6.40;99.90
24446;DHT22;13347;50.984;5.822;2023-12-20T02:48:35;6.30;99.90
24446;DHT22;13347;50.984;5.822;2023-12-20T02:51:02;6.30;99.90
24446;DHT22;13347;50.984;5.822;2023-12-20T02:53:29;6.20;99.90
24446;DHT22;13347;50.984;5.822;2023-12-20T02:55:57;6.20;99.90
24446;DHT22;13347;50.984;5.822;2023-12-20T02:58:24;6.10;99.90
24446;DHT22;13347;50.984;5.822;2023-12-20T03:00:51;6.20;99.90
24446;DHT22;13347;50.984;5.822;2023-12-20T03:03:18;6.10;99.90
24446;DHT22;13347;50.984;5.822;2023-12-20T03:05:45;6.20;99.90
24446;DHT22;13347;50.984;5.822;2023-12-20T03:08:11;6.20;99.90
24446;DHT22;13347;50.984;5.822;2023-12-20T03:10:38;6.30;99.90
24446;DHT22;13347;50.984;5.822;2023-12-20T03:13:07;6.30;99.90
24446;DHT22;13347;50.984;5.822;2023-12-20T03:15:34;6.30;99.90
24446;DHT22;13347;50.984;5.822;2023-12-20T03:18:00;6.20;99.90
24446;DHT22;13347;50.984;5.822;2023-12-20T03:20:27;6.20;99.90
24446;DHT22;13347;50.984;5.822;2023-12-20T03:22:56;6.10;99.90
24446;DHT22;13347;50.984;5.822;2023-12-20T03:25:23;6.00;99.90
24446;DHT22;13347;50.984;5.822;2023-12-20T03:27:50;5.90;99.90
24446;DHT22;13347;50.984;5.822;2023-12-20T03:30:18;6.00;99.90
24446;DHT22;13347;50.984;5.822;2023-12-20T03:32:46;6.00;99.90
24446;DHT22;13347;50.984;5.822;2023-12-20T03:35:13;6.00;99.90
24446;DHT22;13347;50.984;5.822;2023-12-20T03:37:40;6.10;99.90
24446;DHT22;13347;50.984;5.822;2023-12-20T03:40:07;6.00;99.90
24446;DHT22;13347;50.984;5.822;2023-12-20T03:42:34;6.00;99.90
24446;DHT22;13347;50.984;5.822;2023-12-20T03:45:01;6.00;99.90
24446;DHT22;13347;50.984;5.822;2023-12-20T03:47:29;5.90;99.90
24446;DHT22;13347;50.984;5.822;2023-12-20T03:49:56;5.90;99.90
24446;DHT22;13347;50.984;5.822;2023-12-20T03:52:23;5.80;99.90
24446;DHT22;13347;50.984;5.822;2023-12-20T03:54:50;5.80;99.90
24446;DHT22;13347;50.984;5.822;2023-12-20T03:57:17;5.70;99.90
24446;DHT22;13347;50.984;5.822;2023-12-20T03:59:44;5.70;99.90
24446;DHT22;13347;50.984;5.822;2023-12-20T04:02:12;5.60;99.90
24446;DHT22;13347;50.984;5.822;2023-12-20T04:04:40;5.60;99.90
24446;DHT22;13347;50.984;5.822;2023-12-20T04:07:07;5.60;99.90
24446;DHT22;13347;50.984;5.822;2023-12-20T04:09:34;5.60;99.90
24446;DHT22;13347;50.984;5.822;2023-12-20T04:12:01;5.60;99.90
24446;DHT22;13347;50.984;5.822;2023-12-20T04:14:28;5.70;99.90
24446;DHT22;13347;50.984;5.822;2023-12-20T04:16:55;5.70;99.90
24446;DHT22;13347;50.984;5.822;2023-12-20T04:19:22;5.70;99.90
24446;DHT22;13347;50.984;5.822;2023-12-20T04:21:51;5.80;99.90
24446;DHT22;13347;50.984;5.822;2023-12-20T04:24:18;5.80;99.90
24446;DHT22;13347;50.984;5.822;2023-12-20T04:26:45;5.80;99.90
24446;DHT22;13347;50.984;5.822;2023-12-20T04:29:12;5.80;99.90
24446;DHT22;13347;50.984;5.822;2023-12-20T04:31:39;5.80;99.90
24446;DHT22;13347;50.984;5.822;2023-12-20T04:34:05;5.80;99.90
24446;DHT22;13347;50.984;5.822;2023-12-20T04:36:32;5.80;99.90
24446;DHT22;13347;50.984;5.822;2023-12-20T04:39:01;5.80;99.90
24446;DHT22;13347;50.984;5.822;2023-12-20T04:41:28;5.90;99.90
24446;DHT22;13347;50.984;5.822;2023-12-20T04:43:55;5.90;99.90
24446;DHT22;13347;50.984;5.822;2023-12-20T04:46:22;5.90;99.90
24446;DHT22;13347;50.984;5.822;2023-12-20T04:48:49;6.00;99.90
24446;DHT22;13347;50.984;5.822;2023-12-20T04:51:16;6.00;99.90
24446;DHT22;13347;50.984;5.822;2023-12-20T04:53:43;6.00;99.90
24446;DHT22;13347;50.984;5.822;2023-12-20T04:56:12;6.00;99.90
24446;DHT22;13347;50.984;5.822;2023-12-20T04:58:38;6.00;99.90
24446;DHT22;13347;50.984;5.822;2023-12-20T05:01:05;6.10;99.90
24446;DHT22;13347;50.984;5.822;2023-12-20T05:03:32;6.10;99.90
24446;DHT22;13347;50.984;5.822;2023-12-20T05:05:59;6.10;99.90
24446;DHT22;13347;50.984;5.822;2023-12-20T05:08:26;6.10;99.90
24446;DHT22;13347;50.984;5.822;2023-12-20T05:10:53;6.10;99.90
24446;DHT22;13347;50.984;5.822;2023-12-20T05:13:22;6.10;99.90
24446;DHT22;13347;50.984;5.822;2023-12-20T05:15:49;6.20;99.90
24446;DHT22;13347;50.984;5.822;2023-12-20T05:18:16;6.20;99.90
24446;DHT22;13347;50.984;5.822;2023-12-20T05:20:43;6.20;99.90
24446;DHT22;13347;50.984;5.822;2023-12-20T05:23:11;6.20;99.90
24446;DHT22;13347;50.984;5.822;2023-12-20T05:25:38;6.30;99.90
24446;DHT22;13347;50.984;5.822;2023-12-20T05:28:05;6.30;99.90
24446;DHT22;13347;50.984;5.822;2023-12-20T05:30:34;6.20;99.90
24446;DHT22;13347;50.984;5.822;2023-12-20T05:33:01;6.30;99.90
24446;DHT22;13347;50.984;5.822;2023-12-20T05:35:28;6.30;99.90
24446;DHT22;13347;50.984;5.822;2023-12-20T05:37:55;6.30;99.90
24446;DHT22;13347;50.984;5.822;2023-12-20T05:40:22;6.40;99.90
24446;DHT22;13347;50.984;5.822;2023-12-20T05:42:49;6.40;99.90
24446;DHT22;13347;50.984;5.822;2023-12-20T05:45:16;6.30;99.90
24446;DHT22;13347;50.984;5.822;2023-12-20T05:47:44;6.30;99.90
24446;DHT22;13347;50.984;5.822;2023-12-20T05:50:11;6.20;99.90
24446;DHT22;13347;50.984;5.822;2023-12-20T05:52:38;6.20;99.90
24446;DHT22;13347;50.984;5.822;2023-12-20T05:55:05;6.20;99.90
24446;DHT22;13347;50.984;5.822;2023-12-20T05:57:32;6.20;99.90
24446;DHT22;13347;50.984;5.822;2023-12-20T05:59:59;6.20;99.90
24446;DHT22;13347;50.984;5.822;2023-12-20T06:02:26;6.20;99.90
24446;DHT22;13347;50.984;5.822;2023-12-20T06:04:55;6.20;99.90
24446;DHT22;13347;50.984;5.822;2023-12-20T06:07:22;6.20;99.90
24446;DHT22;13347;50.984;5.822;2023-12-20T06:09:49;6.20;99.90
24446;DHT22;13347;50.984;5.822;2023-12-20T06:12:16;6.20;99.90
24446;DHT22;13347;50.984;5.822;2023-12-20T06:14:43;6.20;99.90
24446;DHT22;13347;50.984;5.822;2023-12-20T06:17:10;6.20;99.90
24446;DHT22;13347;50.984;5.822;2023-12-20T06:19:37;6.20;99.90
24446;DHT22;13347;50.984;5.822;2023-12-20T06:22:06;6.20;99.90
24446;DHT22;13347;50.984;5.822;2023-12-20T06:24:33;6.20;99.90
24446;DHT22;13347;50.984;5.822;2023-12-20T06:27:00;6.20;99.90
24446;DHT22;13347;50.984;5.822;2023-12-20T06:29:27;6.20;99.90
24446;DHT22;13347;50.984;5.822;2023-12-20T06:31:54;6.20;99.90
24446;DHT22;13347;50.984;5.822;2023-12-20T06:34:21;6.20;99.90
24446;DHT22;13347;50.984;5.822;2023-12-20T06:36:48;6.20;99.90
24446;DHT22;13347;50.984;5.822;2023-12-20T06:39:17;6.10;99.90
24446;DHT22;13347;50.984;5.822;2023-12-20T06:41:44;6.10;99.90
24446;DHT22;13347;50.984;5.822;2023-12-20T06:44:11;6.00;99.90
24446;DHT22;13347;50.984;5.822;2023-12-20T06:46:38;6.00;99.90
24446;DHT22;13347;50.984;5.822;2023-12-20T06:49:05;5.90;99.90
24446;DHT22;13347;50.984;5.822;2023-12-20T06:51:32;5.90;99.90
24446;DHT22;13347;50.984;5.822;2023-12-20T06:53:59;5.90;99.90
24446;DHT22;13347;50.984;5.822;2023-12-20T06:56:29;5.80;99.90
24446;DHT22;13347;50.984;5.822;2023-12-20T06:58:56;5.80;99.90
24446;DHT22;13347;50.984;5.822;2023-12-20T07:01:22;5.80;99.90
24446;DHT22;13347;50.984;5.822;2023-12-20T07:03:49;5.80;99.90
24446;DHT22;13347;50.984;5.822;2023-12-20T07:06:16;5.80;99.90
24446;DHT22;13347;50.984;5.822;2023-12-20T07:08:43;5.80;99.90
24446;DHT22;13347;50.984;5.822;2023-12-20T07:11:10;5.90;99.90
24446;DHT22;13347;50.984;5.822;2023-12-20T07:13:38;5.80;99.90
24446;DHT22;13347;50.984;5.822;2023-12-20T07:16:05;5.70;99.90
24446;DHT22;13347;50.984;5.822;2023-12-20T07:18:32;5.60;99.90
24446;DHT22;13347;50.984;5.822;2023-12-20T07:20:59;5.60;99.90
24446;DHT22;13347;50.984;5.822;2023-12-20T07:23:26;5.60;99.90
24446;DHT22;13347;50.984;5.822;2023-12-20T07:25:53;5.50;99.90
24446;DHT22;13347;50.984;5.822;2023-12-20T07:28:20;5.50;99.90
24446;DHT22;13347;50.984;5.822;2023-12-20T07:30:48;5.60;99.90
24446;DHT22;13347;50.984;5.822;2023-12-20T07:33:15;5.60;99.90
24446;DHT22;13347;50.984;5.822;2023-12-20T07:35:42;5.60;99.90
24446;DHT22;13347;50.984;5.822;2023-12-20T07:38:10;5.60;99.90
24446;DHT22;13347;50.984;5.822;2023-12-20T07:40:38;5.70;99.90
24446;DHT22;13347;50.984;5.822;2023-12-20T07:43:05;5.70;99.90
24446;DHT22;13347;50.984;5.822;2023-12-20T07:45:32;5.70;99.90
24446;DHT22;13347;50.984;5.822;2023-12-20T07:48:00;5.60;99.90
24446;DHT22;13347;50.984;5.822;2023-12-20T07:50:27;5.70;99.90
24446;DHT22;13347;50.984;5.822;2023-12-20T07:52:54;5.70;99.90
24446;DHT22;13347;50.984;5.822;2023-12-20T07:55:21;5.70;99.90
24446;DHT22;13347;50.984;5.822;2023-12-20T07:57:48;5.60;99.90
24446;DHT22;13347;50.984;5.822;2023-12-20T08:00:15;5.70;99.90
24446;DHT22;13347;50.984;5.822;2023-12-20T08:02:42;5.70;99.90
24446;DHT22;13347;50.984;5.822;2023-12-20T08:05:10;5.80;99.90
24446;DHT22;13347;50.984;5.822;2023-12-20T08:07:37;5.80;99.90
24446;DHT22;13347;50.984;5.822;2023-12-20T08:10:05;5.80;99.90
24446;DHT22;13347;50.984;5.822;2023-12-20T08:12:32;5.80;99.90
24446;DHT22;13347;50.984;5.822;2023-12-20T08:14:59;5.80;99.90
24446;DHT22;13347;50.984;5.822;2023-12-20T08:17:26;5.80;99.90
24446;DHT22;13347;50.984;5.822;2023-12-20T08:19:53;5.80;99.90
24446;DHT22;13347;50.984;5.822;2023-12-20T08:22:21;5.80;99.90
24446;DHT22;13347;50.984;5.822;2023-12-20T08:24:48;5.70;99.90
24446;DHT22;13347;50.984;5.822;2023-12-20T08:27:15;5.70;99.90
24446;DHT22;13347;50.984;5.822;2023-12-20T08:29:43;5.70;99.90
24446;DHT22;13347;50.984;5.822;2023-12-20T08:32:10;5.70;99.90
24446;DHT22;13347;50.984;5.822;2023-12-20T08:34:37;5.80;99.90
24446;DHT22;13347;50.984;5.822;2023-12-20T08:37:04;5.80;99.90
24446;DHT22;13347;50.984;5.822;2023-12-20T08:39:32;5.90;99.90
24446;DHT22;13347;50.984;5.822;2023-12-20T08:41:59;6.10;99.90
24446;DHT22;13347;50.984;5.822;2023-12-20T08:44:26;6.10;99.90
24446;DHT22;13347;50.984;5.822;2023-12-20T08:46:53;6.10;99.90
24446;DHT22;13347;50.984;5.822;2023-12-20T08:49:22;6.10;99.90
24446;DHT22;13347;50.984;5.822;2023-12-20T08:51:50;6.10;99.90
24446;DHT22;13347;50.984;5.822;2023-12-20T08:54:17;6.10;99.90
24446;DHT22;13347;50.984;5.822;2023-12-20T08:56:46;6.00;99.90
24446;DHT22;13347;50.984;5.822;2023-12-20T08:59:13;6.00;99.90
24446;DHT22;13347;50.984;5.822;2023-12-20T09:01:40;6.10;99.90
24446;DHT22;13347;50.984;5.822;2023-12-20T09:04:07;6.30;99.90
24446;DHT22;13347;50.984;5.822;2023-12-20T09:06:34;6.30;99.90
24446;DHT22;13347;50.984;5.822;2023-12-20T09:09:01;6.50;99.90
24446;DHT22;13347;50.984;5.822;2023-12-20T09:11:28;6.60;99.90
24446;DHT22;13347;50.984;5.822;2023-12-20T09:13:56;6.50;99.90
24446;DHT22;13347;50.984;5.822;2023-12-20T09:16:23;6.40;99.90
24446;DHT22;13347;50.984;5.822;2023-12-20T09:18:50;6.50;99.90
24446;DHT22;13347;50.984;5.822;2023-12-20T09:21:18;6.70;99.90
24446;DHT22;13347;50.984;5.822;2023-12-20T09:23:45;6.60;99.90
24446;DHT22;13347;50.984;5.822;2023-12-20T09:26:12;6.70;99.90
24446;DHT22;13347;50.984;5.822;2023-12-20T09:28:39;6.90;99.90
24446;DHT22;13347;50.984;5.822;2023-12-20T09:31:08;7.10;99.90
24446;DHT22;13347;50.984;5.822;2023-12-20T09:33:35;7.10;99.90
24446;DHT22;13347;50.984;5.822;2023-12-20T09:36:02;7.00;99.90
24446;DHT22;13347;50.984;5.822;2023-12-20T09:38:29;7.10;99.90
24446;DHT22;13347;50.984;5.822;2023-12-20T09:40:56;7.30;99.90
24446;DHT22;13347;50.984;5.822;2023-12-20T09:43:23;7.30;99.90
24446;DHT22;13347;50.984;5.822;2023-12-20T09:45:52;7.10;99.90
24446;DHT22;13347;50.984;5.822;2023-12-20T09:48:21;7.20;99.90
24446;DHT22;13347;50.984;5.822;2023-12-20T09:50:48;7.00;99.90
24446;DHT22;13347;50.984;5.822;2023-12-20T09:53:15;7.20;99.90
24446;DHT22;13347;50.984;5.822;2023-12-20T09:55:42;7.50;99.90
24446;DHT22;13347;50.984;5.822;2023-12-20T09:58:09;7.60;58.70
24446;DHT22;13347;50.984;5.822;2023-12-20T10:00:36;7.30;49.20
24446;DHT22;13347;50.984;5.822;2023-12-20T10:03:03;7.30;82.60
24446;DHT22;13347;50.984;5.822;2023-12-20T10:05:34;7.30;60.90
24446;DHT22;13347;50.984;5.822;2023-12-20T10:08:01;7.50;63.60
24446;DHT22;13347;50.984;5.822;2023-12-20T10:10:28;7.60;40.10
24446;DHT22;13347;50.984;5.822;2023-12-20T10:13:02;7.50;15.70
24446;DHT22;13347;50.984;5.822;2023-12-20T10:15:29;7.40;17.40
24446;DHT22;13347;50.984;5.822;2023-12-20T10:17:56;7.50;26.90
24446;DHT22;13347;50.984;5.822;2023-12-20T10:20:23;7.40;14.40
24446;DHT22;13347;50.984;5.822;2023-12-20T10:22:52;7.20;39.10
24446;DHT22;13347;50.984;5.822;2023-12-20T10:25:19;7.30;49.20
24446;DHT22;13347;50.984;5.822;2023-12-20T10:27:47;7.40;40.80
24446;DHT22;13347;50.984;5.822;2023-12-20T10:30:14;7.40;28.90
24446;DHT22;13347;50.984;5.822;2023-12-20T10:32:41;7.20;33.90
24446;DHT22;13347;50.984;5.822;2023-12-20T10:35:08;7.20;43.20
24446;DHT22;13347;50.984;5.822;2023-12-20T10:37:35;7.30;38.30
24446;DHT22;13347;50.984;5.822;2023-12-20T10:40:04;7.30;40.30
24446;DHT22;13347;50.984;5.822;2023-12-20T10:42:32;7.30;44.60
24446;DHT22;13347;50.984;5.822;2023-12-20T10:45:00;7.30;46.10
24446;DHT22;13347;50.984;5.822;2023-12-20T10:47:27;7.40;46.60
24446;DHT22;13347;50.984;5.822;2023-12-20T10:49:54;7.40;41.20
24446;DHT22;13347;50.984;5.822;2023-12-20T10:52:22;7.50;31.90
24446;DHT22;13347;50.984;5.822;2023-12-20T10:54:49;7.50;36.70
24446;DHT22;13347;50.984;5.822;2023-12-20T10:57:18;7.50;30.00
24446;DHT22;13347;50.984;5.822;2023-12-20T10:59:45;7.60;18.20
24446;DHT22;13347;50.984;5.822;2023-12-20T11:02:14;7.80;5.80
24446;DHT22;13347;50.984;5.822;2023-12-20T11:04:44;8.00;2.70
24446;DHT22;13347;50.984;5.822;2023-12-20T11:07:17;8.10;1.00
24446;DHT22;13347;50.984;5.822;2023-12-20T11:09:45;8.10;1.00
24446;DHT22;13347;50.984;5.822;2023-12-20T11:12:15;8.00;1.00
24446;DHT22;13347;50.984;5.822;2023-12-20T11:14:46;7.90;1.00
24446;DHT22;13347;50.984;5.822;2023-12-20T11:17:13;7.90;1.00
24446;DHT22;13347;50.984;5.822;2023-12-20T11:22:29;7.90;1.00
24446;DHT22;13347;50.984;5.822;2023-12-20T11:24:58;7.80;1.00
24446;DHT22;13347;50.984;5.822;2023-12-20T11:27:25;7.90;1.00
24446;DHT22;13347;50.984;5.822;2023-12-20T11:29:56;8.00;1.00
24446;DHT22;13347;50.984;5.822;2023-12-20T11:32:29;7.90;1.00
24446;DHT22;13347;50.984;5.822;2023-12-20T11:34:56;7.90;1.00
24446;DHT22;13347;50.984;5.822;2023-12-20T11:37:28;8.00;1.00
24446;DHT22;13347;50.984;5.822;2023-12-20T11:39:55;8.00;1.00
24446;DHT22;13347;50.984;5.822;2023-12-20T11:42:22;8.00;1.00
24446;DHT22;13347;50.984;5.822;2023-12-20T11:44:49;7.90;1.00
24446;DHT22;13347;50.984;5.822;2023-12-20T11:47:18;7.90;1.00
24446;DHT22;13347;50.984;5.822;2023-12-20T11:49:46;7.90;1.00
24446;DHT22;13347;50.984;5.822;2023-12-20T11:52:13;7.90;1.00
24446;DHT22;13347;50.984;5.822;2023-12-20T11:54:40;8.00;1.00
24446;DHT22;13347;50.984;5.822;2023-12-20T11:57:07;7.90;1.00
24446;DHT22;13347;50.984;5.822;2023-12-20T11:59:36;7.80;1.00
24446;DHT22;13347;50.984;5.822;2023-12-20T12:02:03;7.80;1.00
24446;DHT22;13347;50.984;5.822;2023-12-20T12:04:31;7.80;1.00
24446;DHT22;13347;50.984;5.822;2023-12-20T12:06:58;7.60;2.10
24446;DHT22;13347;50.984;5.822;2023-12-20T12:09:25;7.60;19.40
24446;DHT22;13347;50.984;5.822;2023-12-20T12:11:52;7.50;34.80
24446;DHT22;13347;50.984;5.822;2023-12-20T12:14:19;7.50;67.90
24446;DHT22;13347;50.984;5.822;2023-12-20T12:16:47;7.50;95.70
24446;DHT22;13347;50.984;5.822;2023-12-20T12:19:22;7.50;99.90
24446;DHT22;13347;50.984;5.822;2023-12-20T12:21:50;7.40;99.90
24446;DHT22;13347;50.984;5.822;2023-12-20T12:24:20;7.40;99.90
24446;DHT22;13347;50.984;5.822;2023-12-20T12:26:49;7.40;99.90
24446;DHT22;13347;50.984;5.822;2023-12-20T12:29:16;7.40;99.90
24446;DHT22;13347;50.984;5.822;2023-12-20T12:31:43;7.40;99.90
24446;DHT22;13347;50.984;5.822;2023-12-20T12:34:11;7.40;99.90
24446;DHT22;13347;50.984;5.822;2023-12-20T12:36:38;7.40;99.90
24446;DHT22;13347;50.984;5.822;2023-12-20T12:39:07;7.40;99.90
24446;DHT22;13347;50.984;5.822;2023-12-20T12:41:34;7.40;99.90
24446;DHT22;13347;50.984;5.822;2023-12-20T12:44:01;7.50;99.90
24446;DHT22;13347;50.984;5.822;2023-12-20T12:46:28;7.60;99.90
24446;DHT22;13347;50.984;5.822;2023-12-20T12:48:55;7.60;99.90
24446;DHT22;13347;50.984;5.822;2023-12-20T12:51:22;7.70;99.90
24446;DHT22;13347;50.984;5.822;2023-12-20T12:53:49;7.70;99.90
24446;DHT22;13347;50.984;5.822;2023-12-20T12:56:17;7.70;99.90
24446;DHT22;13347;50.984;5.822;2023-12-20T12:58:44;7.70;99.90
24446;DHT22;13347;50.984;5.822;2023-12-20T13:01:12;7.70;99.90
24446;DHT22;13347;50.984;5.822;2023-12-20T13:03:39;7.60;99.90
24446;DHT22;13347;50.984;5.822;2023-12-20T13:06:06;7.60;99.90
24446;DHT22;13347;50.984;5.822;2023-12-20T13:08:34;7.60;99.90
24446;DHT22;13347;50.984;5.822;2023-12-20T13:11:01;7.60;99.90
24446;DHT22;13347;50.984;5.822;2023-12-20T13:13:31;7.60;99.90
24446;DHT22;13347;50.984;5.822;2023-12-20T13:15:58;7.60;99.90
24446;DHT22;13347;50.984;5.822;2023-12-20T13:18:26;7.50;99.90
24446;DHT22;13347;50.984;5.822;2023-12-20T13:20:53;7.60;99.90
24446;DHT22;13347;50.984;5.822;2023-12-20T13:23:20;7.70;99.90
24446;DHT22;13347;50.984;5.822;2023-12-20T13:25:47;7.70;99.90
24446;DHT22;13347;50.984;5.822;2023-12-20T13:28:14;7.70;99.90
24446;DHT22;13347;50.984;5.822;2023-12-20T13:30:42;7.70;99.90
24446;DHT22;13347;50.984;5.822;2023-12-20T13:33:09;7.70;99.90
24446;DHT22;13347;50.984;5.822;2023-12-20T13:35:36;7.70;99.90
24446;DHT22;13347;50.984;5.822;2023-12-20T13:38:03;7.90;99.90
24446;DHT22;13347;50.984;5.822;2023-12-20T13:40:30;7.90;99.90
24446;DHT22;13347;50.984;5.822;2023-12-20T13:42:57;8.00;99.90
24446;DHT22;13347;50.984;5.822;2023-12-20T13:45:24;8.00;99.90
24446;DHT22;13347;50.984;5.822;2023-12-20T13:47:52;7.90;99.90
24446;DHT22;13347;50.984;5.822;2023-12-20T13:50:19;8.00;99.90
24446;DHT22;13347;50.984;5.822;2023-12-20T13:52:47;8.00;99.90
24446;DHT22;13347;50.984;5.822;2023-12-20T13:55:14;8.00;99.90
24446;DHT22;13347;50.984;5.822;2023-12-20T13:57:42;7.90;99.90
24446;DHT22;13347;50.984;5.822;2023-12-20T14:00:09;7.90;99.90
24446;DHT22;13347;50.984;5.822;2023-12-20T14:02:40;7.90;99.90
24446;DHT22;13347;50.984;5.822;2023-12-20T14:05:09;7.90;99.90
24446;DHT22;13347;50.984;5.822;2023-12-20T14:07:36;7.80;99.90
24446;DHT22;13347;50.984;5.822;2023-12-20T14:10:03;7.80;99.90
24446;DHT22;13347;50.984;5.822;2023-12-20T14:12:31;7.80;99.90
24446;DHT22;13347;50.984;5.822;2023-12-20T14:15:01;7.80;99.90
24446;DHT22;13347;50.984;5.822;2023-12-20T14:17:28;7.80;99.90
24446;DHT22;13347;50.984;5.822;2023-12-20T14:19:57;7.80;99.90
24446;DHT22;13347;50.984;5.822;2023-12-20T14:22:25;7.80;99.90
24446;DHT22;13347;50.984;5.822;2023-12-20T14:24:54;7.80;99.90
24446;DHT22;13347;50.984;5.822;2023-12-20T14:27:22;7.90;99.90
24446;DHT22;13347;50.984;5.822;2023-12-20T14:29:50;7.90;99.90
24446;DHT22;13347;50.984;5.822;2023-12-20T14:32:17;7.90;99.90
24446;DHT22;13347;50.984;5.822;2023-12-20T14:34:44;8.00;99.90
24446;DHT22;13347;50.984;5.822;2023-12-20T14:37:10;8.00;99.90
24446;DHT22;13347;50.984;5.822;2023-12-20T14:39:39;7.90;99.90
24446;DHT22;13347;50.984;5.822;2023-12-20T14:42:07;8.00;99.90
24446;DHT22;13347;50.984;5.822;2023-12-20T14:44:36;8.00;99.90
24446;DHT22;13347;50.984;5.822;2023-12-20T14:47:04;7.90;99.90
24446;DHT22;13347;50.984;5.822;2023-12-20T14:49:31;7.90;99.90
24446;DHT22;13347;50.984;5.822;2023-12-20T14:51:57;8.00;99.90
24446;DHT22;13347;50.984;5.822;2023-12-20T14:54:25;8.00;99.90
24446;DHT22;13347;50.984;5.822;2023-12-20T14:56:53;8.00;99.90
24446;DHT22;13347;50.984;5.822;2023-12-20T14:59:21;8.00;99.90
24446;DHT22;13347;50.984;5.822;2023-12-20T15:01:48;8.10;99.90
24446;DHT22;13347;50.984;5.822;2023-12-20T15:04:15;8.10;99.90
24446;DHT22;13347;50.984;5.822;2023-12-20T15:06:42;8.10;99.90
24446;DHT22;13347;50.984;5.822;2023-12-20T15:09:10;8.10;99.90
24446;DHT22;13347;50.984;5.822;2023-12-20T15:11:37;8.00;99.90
24446;DHT22;13347;50.984;5.822;2023-12-20T15:14:05;8.10;99.90
24446;DHT22;13347;50.984;5.822;2023-12-20T15:16:32;8.10;99.90
24446;DHT22;13347;50.984;5.822;2023-12-20T15:19:00;8.10;99.90
24446;DHT22;13347;50.984;5.822;2023-12-20T15:21:28;8.10;99.90
24446;DHT22;13347;50.984;5.822;2023-12-20T15:23:57;8.10;99.90
24446;DHT22;13347;50.984;5.822;2023-12-20T15:26:32;8.10;99.90
24446;DHT22;13347;50.984;5.822;2023-12-20T15:28:59;8.10;99.90
24446;DHT22;13347;50.984;5.822;2023-12-20T15:31:27;8.10;99.90
24446;DHT22;13347;50.984;5.822;2023-12-20T15:33:54;8.10;99.90
24446;DHT22;13347;50.984;5.822;2023-12-20T15:36:21;8.10;99.90
24446;DHT22;13347;50.984;5.822;2023-12-20T15:38:48;8.10;99.90
24446;DHT22;13347;50.984;5.822;2023-12-20T15:41:18;8.10;99.90
24446;DHT22;13347;50.984;5.822;2023-12-20T15:43:45;8.00;99.90
24446;DHT22;13347;50.984;5.822;2023-12-20T15:46:13;8.10;99.90
24446;DHT22;13347;50.984;5.822;2023-12-20T15:48:41;8.10;99.90
24446;DHT22;13347;50.984;5.822;2023-12-20T15:51:08;8.10;99.90